This is the latest recevied weather packets stored in our database for station/object Ad4UU. If no packets are shown the sender has not sent any weather packets the latest 10 day(s).
| Time | Temp. | Humidity | Pressure | Rain* | Wind** | Luminosity | Snow |
|---|---|---|---|---|---|---|---|
| 1777432230 | 22.22° C | 81% | 1018.6 hPa | 0 mm | - | - | - |
| 1777431032 | 21.11° C | 83% | 1018.9 hPa | 0 mm | - | - | - |
| 1777429844 | 22.78° C | 78% | 1019.1 hPa | 0 mm | - | - | - |
| 1777429229 | 23.33° C | 76% | 1019.1 hPa | 0 mm | - | - | - |
| 1777425348 | 24.44° C | 72% | 1018.9 hPa | 0 mm | - | - | - |
| 1777424732 | 24.44° C | 72% | 1019 hPa | 0 mm | - | - | - |
| 1777423233 | 25° C | 70% | 1018.6 hPa | 0 mm | - | - | - |
| 1777422651 | 25.56° C | 69% | 1018.5 hPa | 0 mm | - | - | - |
| 1777421131 | 26.11° C | 68% | 1018.7 hPa | 0 mm | - | - | - |
| 1777420680 | 26.11° C | 68% | 1018.5 hPa | 0 mm | - | - | - |
| 1777419633 | 26.67° C | 67% | 1018.6 hPa | 0 mm | - | - | - |
| 1777418157 | 27.78° C | 64% | 1018.4 hPa | 0 mm | - | - | - |
| 1777415450 | 29.44° C | 59% | 1018.8 hPa | 0 mm | - | - | - |
| 1777414232 | 30° C | 58% | 1018.7 hPa | 0 mm | - | - | - |
| 1777400431 | 30.56° C | 55% | 1021.3 hPa | 0 mm | - | - | - |
| 1777397445 | 29.44° C | 63% | 1021.4 hPa | 0 mm | - | - | - |
| 1777394131 | 27.78° C | 69% | 1021.7 hPa | 0 mm | - | - | - |
| 1777393532 | 27.78° C | 69% | 1021.7 hPa | 0 mm | - | - | - |
| 1777392634 | 27.22° C | 70% | 1021.9 hPa | 0 mm | - | - | - |
| 1777390249 | 26.67° C | 73% | 1022 hPa | 0 mm | - | - | - |
| 1777383047 | 21.67° C | 88% | 1021.8 hPa | 0 mm | - | - | - |
| 1777382430 | 21.11° C | 90% | 1021.8 hPa | 0 mm | - | - | - |
| 1777382148 | 20.56° C | 91% | 1021.9 hPa | 0 mm | - | - | - |
| 1777381834 | 20.56° C | 93% | 1021.7 hPa | 0 mm | - | - | - |
| 1777380347 | 18.33° C | 98% | 1021.5 hPa | 0 mm | - | - | - |
* Rain latest hour (hover to see other rain measurements)
** Current wind speed in m/s (hover to see current wind gust speed)